Time;durP1;ratioP1;P1;durP2;ratioP2;P2;SDS_P1;SDS_P2;PMS_P1;PMS_P2;Temp;Humidity;BMP_temperature;BMP_pressure;BME280_temperature;BME280_humidity;BME280_pressure;Samples;Min_cycle;Max_cycle;Signal;HPM_P1;HPM_P2
2023/10/02 00:01:57;;;;;;;5.00;2.60;;;;;;;11.35;83.77;97905.80;109914;1243;69301;-60
2023/10/02 00:04:34;;;;;;;4.70;2.40;;;;;;;11.34;83.54;97907.51;109922;1244;59822;-62
2023/10/02 00:07:05;;;;;;;5.80;3.10;;;;;;;11.31;83.41;97911.71;109811;1243;59698;-60
2023/10/02 00:09:37;;;;;;;6.00;2.90;;;;;;;11.27;84.64;97906.04;109864;1244;70800;-61
2023/10/02 00:12:14;;;;;;;5.20;2.60;;;;;;;11.21;84.69;97910.05;109889;1244;68303;-61
2023/10/02 00:14:48;;;;;;;4.00;2.50;;;;;;;11.19;84.89;97913.39;109815;1245;68869;-62
2023/10/02 00:17:22;;;;;;;5.30;2.80;;;;;;;11.17;86.04;97913.32;109774;1244;59746;-60
2023/10/02 00:20:14;;;;;;;4.90;2.60;;;;;;;11.13;87.26;97917.06;109769;1247;59635;-60
2023/10/02 00:22:47;;;;;;;4.80;2.30;;;;;;;11.11;88.03;97917.39;109775;1244;71220;-60
2023/10/02 00:25:21;;;;;;;4.70;2.00;;;;;;;11.10;86.19;97915.39;109765;1243;69422;-60
2023/10/02 00:27:54;;;;;;;3.80;2.40;;;;;;;11.09;85.20;97915.80;109758;1243;69318;-60
2023/10/02 00:30:36;;;;;;;3.10;2.10;;;;;;;11.09;88.55;97913.70;109755;1244;59745;-60
2023/10/02 00:33:11;;;;;;;3.70;1.80;;;;;;;11.07;92.63;97914.84;109767;1243;59629;-61
2023/10/02 00:35:52;;;;;;;5.10;2.40;;;;;;;11.05;95.02;97911.36;109842;1243;71519;-60
2023/10/02 00:38:24;;;;;;;4.00;2.30;;;;;;;11.02;94.65;97913.50;109769;1244;69309;-60
2023/10/02 00:40:56;;;;;;;3.50;2.10;;;;;;;10.98;93.68;97913.70;109785;1243;69678;-60
2023/10/02 00:43:45;;;;;;;4.90;2.50;;;;;;;10.94;96.09;97912.56;109730;1245;59753;-60
2023/10/02 00:46:23;;;;;;;3.90;2.40;;;;;;;10.89;98.78;97920.95;109829;1243;60116;-60
2023/10/02 00:48:53;;;;;;;3.20;2.30;;;;;;;10.84;99.08;97920.91;109772;1244;70791;-60
2023/10/02 00:51:27;;;;;;;4.30;2.00;;;;;;;10.83;97.08;97922.23;109747;1245;69412;-60
2023/10/02 00:54:23;;;;;;;3.80;2.10;;;;;;;10.84;91.87;97922.88;109753;1244;69296;-60
2023/10/02 00:56:51;;;;;;;4.50;2.60;;;;;;;10.85;98.00;97926.44;109764;1244;59766;-60
2023/10/02 00:59:23;;;;;;;4.90;2.60;;;;;;;10.91;96.43;97925.70;109762;1243;59763;-60
2023/10/02 01:01:54;;;;;;;4.40;2.50;;;;;;;10.96;94.14;97925.38;109784;1243;71337;-60
2023/10/02 01:04:28;;;;;;;5.60;2.60;;;;;;;10.99;89.46;97927.06;109737;1244;68485;-60
2023/10/02 01:07:06;;;;;;;5.80;2.90;;;;;;;10.97;88.78;97923.04;109712;1248;68234;-60
2023/10/02 01:09:41;;;;;;;4.20;3.30;;;;;;;10.94;87.67;97922.52;109756;1244;60140;-60
2023/10/02 01:12:17;;;;;;;7.80;3.20;;;;;;;10.89;88.08;97921.30;109757;1244;59684;-60
2023/10/02 01:14:51;;;;;;;7.20;3.30;;;;;;;10.82;89.07;97921.39;109745;1244;70581;-59
2023/10/02 01:17:31;;;;;;;6.20;3.10;;;;;;;10.76;89.80;97923.77;109751;1243;69235;-61
2023/10/02 01:20:20;;;;;;;6.40;2.90;;;;;;;10.70;89.98;97925.48;109726;1244;69679;-60
2023/10/02 01:22:56;;;;;;;4.00;2.50;;;;;;;10.68;95.73;97923.88;109764;1244;59716;-60
2023/10/02 01:25:28;;;;;;;3.20;2.10;;;;;;;10.68;99.17;97923.70;109882;1243;59743;-60
2023/10/02 01:28:01;;;;;;;4.50;2.40;;;;;;;10.68;100.00;97928.25;109798;1243;70650;-60
2023/10/02 01:30:33;;;;;;;3.50;2.40;;;;;;;10.69;99.78;97928.21;109795;1244;69209;-60
2023/10/02 01:33:26;;;;;;;4.10;2.50;;;;;;;10.69;100.00;97926.76;109765;1243;68600;-59
2023/10/02 01:35:57;;;;;;;3.00;2.20;;;;;;;10.71;100.00;97924.05;109820;1244;59733;-60
2023/10/02 01:38:34;;;;;;;3.10;1.90;;;;;;;10.71;100.00;97925.08;109801;1245;59726;-60
2023/10/02 01:41:06;;;;;;;4.40;2.70;;;;;;;10.72;100.00;97928.00;109790;1244;70252;-60
2023/10/02 01:43:49;;;;;;;4.40;2.40;;;;;;;10.71;100.00;97931.48;109732;1243;69137;-60
2023/10/02 01:46:22;;;;;;;3.80;2.00;;;;;;;10.72;100.00;97933.05;109891;1244;69744;-60
2023/10/02 01:48:54;;;;;;;4.10;2.40;;;;;;;10.70;100.00;97931.94;109906;1244;59685;-60
2023/10/02 01:51:27;;;;;;;3.10;1.90;;;;;;;10.67;100.00;97936.67;109862;1244;59689;-61
2023/10/02 01:54:04;;;;;;;4.70;2.10;;;;;;;10.65;100.00;97941.84;109920;1245;70666;-62
2023/10/02 01:56:34;;;;;;;4.30;2.00;;;;;;;10.66;96.65;97945.48;110006;1244;69321;-61
2023/10/02 01:59:10;;;;;;;3.10;1.90;;;;;;;10.67;98.74;97942.63;110018;1244;68357;-62
2023/10/02 02:01:52;;;;;;;5.10;2.50;;;;;;;10.66;100.00;97945.77;110014;1243;59717;-62
2023/10/02 02:04:30;;;;;;;4.50;2.70;;;;;;;10.65;100.00;97943.80;109935;1244;59743;-60
2023/10/02 02:07:08;;;;;;;6.50;2.90;;;;;;;10.64;99.73;97944.20;109891;1244;72084;-61
2023/10/02 02:09:43;;;;;;;4.60;3.10;;;;;;;10.64;98.02;97947.88;109965;1243;68597;-61
2023/10/02 02:12:15;;;;;;;4.10;2.70;;;;;;;10.60;96.72;97949.01;109831;1244;69200;-61
2023/10/02 02:14:50;;;;;;;6.20;2.70;;;;;;;10.58;98.32;97949.30;109805;1246;59702;-61
2023/10/02 02:17:24;;;;;;;8.10;3.00;;;;;;;10.56;95.34;97950.81;109902;1244;59699;-61
2023/10/02 02:20:10;;;;;;;4.10;2.40;;;;;;;10.54;99.21;97951.98;109862;1244;71404;-61
2023/10/02 02:22:43;;;;;;;3.80;2.30;;;;;;;10.54;98.48;97954.09;109797;1243;68618;-61
2023/10/02 02:25:13;;;;;;;4.40;2.90;;;;;;;10.54;96.11;97953.02;109737;1243;68563;-60
2023/10/02 02:27:46;;;;;;;4.60;2.40;;;;;;;10.55;94.29;97955.96;109834;1244;59738;-60
2023/10/02 02:30:22;;;;;;;4.20;2.00;;;;;;;10.55;97.76;97958.05;109858;1243;59748;-62
2023/10/02 02:32:54;;;;;;;3.70;2.40;;;;;;;10.57;98.12;97961.73;109931;1244;71438;-62
2023/10/02 02:35:39;;;;;;;4.80;2.60;;;;;;;10.60;98.87;97968.81;109824;1245;69164;-60
2023/10/02 02:38:18;;;;;;;5.80;3.00;;;;;;;10.64;96.97;97959.38;109920;1245;69147;-60
2023/10/02 02:41:05;;;;;;;5.40;2.30;;;;;;;10.64;94.98;97962.86;109778;1246;59711;-60
2023/10/02 02:43:38;;;;;;;6.20;3.00;;;;;;;10.64;96.33;97963.91;109985;1244;59710;-59
2023/10/02 02:46:17;;;;;;;4.50;2.60;;;;;;;10.63;94.97;97965.02;109930;1243;71657;-60
2023/10/02 02:48:49;;;;;;;4.70;2.70;;;;;;;10.63;95.76;97969.90;109759;1246;69110;-59
2023/10/02 02:51:23;;;;;;;5.20;2.40;;;;;;;10.64;96.00;97971.25;109769;1244;67541;-60
2023/10/02 02:53:55;;;;;;;4.60;2.40;;;;;;;10.64;95.42;97972.42;109768;1245;59781;-62
2023/10/02 02:56:25;;;;;;;6.00;2.60;;;;;;;10.66;94.52;97970.93;109725;1247;59706;-60
2023/10/02 02:58:55;;;;;;;6.90;3.40;;;;;;;10.67;94.33;97967.02;109731;1244;70582;-60
2023/10/02 03:01:29;;;;;;;6.40;2.90;;;;;;;10.70;94.46;97966.11;109755;1245;69276;-60
2023/10/02 03:04:16;;;;;;;6.70;3.50;;;;;;;10.71;98.87;97964.13;109757;1245;68598;-59
2023/10/02 03:07:07;;;;;;;5.60;3.20;;;;;;;10.71;97.62;97965.52;109765;1246;59688;-60
2023/10/02 03:09:38;;;;;;;5.50;2.70;;;;;;;10.72;99.30;97967.56;109739;1247;59748;-60
2023/10/02 03:12:10;;;;;;;5.60;3.70;;;;;;;10.74;96.38;97967.98;109840;1243;72221;-60
2023/10/02 03:14:43;;;;;;;4.00;2.50;;;;;;;10.78;94.44;97965.48;109786;1245;68479;-60
2023/10/02 03:17:28;;;;;;;3.70;2.50;;;;;;;10.79;94.68;97966.59;109728;1246;68425;-60
2023/10/02 03:20:00;;;;;;;4.70;2.70;;;;;;;10.81;95.24;97963.33;109722;1245;59749;-59
2023/10/02 03:22:33;;;;;;;4.50;2.50;;;;;;;10.83;98.47;97965.14;109729;1244;59759;-60
2023/10/02 03:25:25;;;;;;;3.40;2.30;;;;;;;10.83;100.00;97962.86;109710;1246;71281;-59
2023/10/02 03:27:57;;;;;;;5.20;2.50;;;;;;;10.84;99.90;97962.11;109767;1245;69080;-60
2023/10/02 03:30:38;;;;;;;4.20;2.50;;;;;;;10.85;100.00;97963.59;109721;1245;68638;-60
2023/10/02 03:33:20;;;;;;;5.80;2.20;;;;;;;10.86;99.77;97962.48;109685;1245;59704;-60
2023/10/02 03:35:58;;;;;;;3.00;2.00;;;;;;;10.87;100.00;97965.89;109832;1246;59679;-60
2023/10/02 03:38:35;;;;;;;4.30;2.40;;;;;;;10.88;100.00;97966.37;109729;1246;71444;-59
2023/10/02 03:41:05;;;;;;;4.20;2.40;;;;;;;10.89;100.00;97965.38;109724;1245;68363;-60
2023/10/02 03:43:43;;;;;;;5.60;2.70;;;;;;;10.90;100.00;97968.46;109711;1246;69718;-60
2023/10/02 03:46:22;;;;;;;5.70;3.20;;;;;;;10.92;100.00;97963.10;109724;1245;59684;-60
2023/10/02 03:49:00;;;;;;;6.10;3.00;;;;;;;10.94;100.00;97962.98;109746;1246;59760;-60
2023/10/02 03:51:40;;;;;;;4.70;2.20;;;;;;;10.95;99.80;97966.21;109765;1244;71380;-60
2023/10/02 03:54:17;;;;;;;;;;;;;;;10.98;100.00;97967.25;109849;1243;67828;-60
2023/10/02 03:56:55;;;;;;;3.80;2.10;;;;;;;11.00;100.00;97968.20;109776;1244;69780;-60
2023/10/02 03:59:26;;;;;;;2.70;1.80;;;;;;;11.02;100.00;97967.55;109795;1243;59709;-60
2023/10/02 04:02:24;;;;;;;3.90;1.90;;;;;;;11.04;98.52;97972.13;109765;1243;59702;-61
2023/10/02 04:04:48;;;;;;;5.60;2.10;;;;;;;11.06;98.93;97973.90;109825;1243;71265;-61
2023/10/02 04:07:20;;;;;;;5.20;2.60;;;;;;;11.08;98.33;97975.52;109923;1244;69828;-61
2023/10/02 04:09:50;;;;;;;4.30;2.80;;;;;;;11.07;95.35;97978.38;109784;1243;69290;-61
2023/10/02 04:12:22;;;;;;;3.50;2.70;;;;;;;11.06;94.40;97979.67;109828;1244;59691;-62
2023/10/02 04:14:54;;;;;;;8.70;4.10;;;;;;;11.04;94.42;97978.41;109934;1244;59696;-61
2023/10/02 04:17:25;;;;;;;6.50;4.10;;;;;;;10.99;96.10;97985.33;109925;1244;71236;-60
2023/10/02 04:20:04;;;;;;;5.90;3.40;;;;;;;10.98;99.75;97991.15;109837;1244;69265;-61
2023/10/02 04:22:36;;;;;;;6.30;3.40;;;;;;;10.99;100.00;97995.84;109906;1243;70084;-60
2023/10/02 04:25:09;;;;;;;5.20;3.10;;;;;;;10.98;99.57;98001.79;110015;1243;59750;-60
2023/10/02 04:32:59;;;;;;;5.60;3.00;;;;;;;11.03;100.00;98010.40;109882;1244;69262;-60
2023/10/02 04:35:44;;;;;;;3.80;2.80;;;;;;;11.06;99.10;98010.73;109766;1244;68344;-61
2023/10/02 04:38:15;;;;;;;6.20;3.70;;;;;;;11.08;97.23;98011.45;109804;1244;59841;-61
2023/10/02 04:40:51;;;;;;;6.50;3.70;;;;;;;11.10;95.80;98016.55;109793;1243;59723;-61
2023/10/02 04:43:28;;;;;;;4.50;3.20;;;;;;;11.11;97.12;98020.31;109768;1244;71384;-60
2023/10/02 04:46:02;;;;;;;5.50;3.50;;;;;;;11.13;95.75;98023.12;109809;1243;69225;-59
2023/10/02 04:48:46;;;;;;;6.70;3.20;;;;;;;11.15;95.06;98027.39;109868;1244;69720;-60
2023/10/02 04:51:16;;;;;;;4.30;2.70;;;;;;;11.17;97.88;98029.52;109767;1244;59735;-60
2023/10/02 04:53:47;;;;;;;6.20;3.10;;;;;;;11.19;95.09;98031.79;109872;1244;59637;-61
2023/10/02 04:56:21;;;;;;;4.60;2.80;;;;;;;11.22;99.06;98032.81;109796;1243;71764;-59
2023/10/02 04:58:57;;;;;;;6.40;2.70;;;;;;;11.27;100.00;98036.70;109806;1243;69207;-60
2023/10/02 05:01:41;;;;;;;3.60;2.60;;;;;;;11.33;100.00;98037.53;109812;1243;69313;-60
2023/10/02 05:04:18;;;;;;;4.20;2.70;;;;;;;11.37;100.00;98040.79;109775;1243;59631;-60
2023/10/02 05:06:55;;;;;;;6.20;2.80;;;;;;;11.39;99.97;98042.52;109818;1245;59748;-60
2023/10/02 05:09:26;;;;;;;4.50;3.20;;;;;;;11.43;100.00;98049.09;109849;1243;71635;-59
2023/10/02 05:11:56;;;;;;;5.80;2.30;;;;;;;11.48;99.12;98048.38;109975;1244;69176;-62
2023/10/02 05:14:26;;;;;;;3.70;2.60;;;;;;;11.53;99.54;98050.14;109905;1244;69283;-59
2023/10/02 05:20:01;;;;;;;6.80;3.00;;;;;;;11.62;96.94;98059.84;109895;1246;59646;-62
2023/10/02 05:22:32;;;;;;;4.40;2.30;;;;;;;11.66;98.69;98062.59;110017;1244;72067;-61
2023/10/02 05:25:07;;;;;;;5.20;2.40;;;;;;;11.68;97.77;98062.62;109928;1243;70413;-62
2023/10/02 05:27:38;;;;;;;5.30;2.90;;;;;;;11.72;97.65;98063.71;109791;1244;69324;-60
2023/10/02 05:30:17;;;;;;;4.90;2.30;;;;;;;11.81;97.65;98067.02;109916;1243;59701;-60
2023/10/02 05:32:48;;;;;;;6.30;3.00;;;;;;;11.86;97.19;98069.67;110060;1244;59721;-60
2023/10/02 05:35:23;;;;;;;4.20;2.40;;;;;;;11.92;95.52;98074.52;109785;1243;72109;-60
2023/10/02 05:37:54;;;;;;;3.80;2.40;;;;;;;11.99;96.16;98075.39;109836;1243;69534;-60
2023/10/02 05:48:31;;;;;;;4.70;2.50;;;;;;;12.44;91.86;98085.97;109903;1243;71992;-60
2023/10/02 05:51:12;;;;;;;6.00;2.40;;;;;;;12.50;90.89;98088.65;109762;1246;69841;-60
2023/10/02 05:53:53;;;;;;;4.70;2.50;;;;;;;12.57;90.66;98090.64;109974;1243;68192;-60
2023/10/02 05:56:25;;;;;;;5.00;2.90;;;;;;;12.51;90.98;98090.88;109745;1243;59710;-60
2023/10/02 05:58:55;;;;;;;4.50;2.60;;;;;;;12.60;91.25;98090.73;109850;1244;59668;-60
2023/10/02 06:01:26;;;;;;;3.20;2.40;;;;;;;12.86;89.75;98090.86;109745;1244;71416;-60
2023/10/02 06:04:00;;;;;;;5.60;3.00;;;;;;;13.08;88.34;98089.10;109825;1243;67556;-60
2023/10/02 06:06:37;;;;;;;6.00;3.00;;;;;;;13.48;86.78;98097.38;109909;1243;69874;-60
2023/10/02 06:09:16;;;;;;;5.60;3.20;;;;;;;13.72;84.59;98101.89;109845;1244;59673;-61
2023/10/02 06:12:05;;;;;;;5.20;2.90;;;;;;;14.04;81.48;98100.75;109783;1243;59678;-60
2023/10/02 06:14:38;;;;;;;5.10;2.50;;;;;;;14.38;80.45;98104.09;109909;1244;70659;-60
2023/10/02 06:17:13;;;;;;;5.20;2.60;;;;;;;14.62;80.27;98110.17;109838;1244;69850;-60
2023/10/02 06:19:42;;;;;;;5.00;2.50;;;;;;;14.66;77.19;98107.02;109958;1245;69884;-60
2023/10/02 06:22:13;;;;;;;5.20;2.70;;;;;;;14.61;77.18;98110.92;109758;1245;59755;-60
2023/10/02 06:24:43;;;;;;;4.80;2.70;;;;;;;14.51;78.21;98115.02;109827;1244;59675;-60
2023/10/02 06:27:14;;;;;;;;;;;;;;;14.64;79.25;98111.94;109749;1244;72366;-61
2023/10/02 06:29:46;;;;;;;5.10;2.60;;;;;;;14.77;78.80;98116.51;109832;1243;69350;-61
2023/10/02 06:32:19;;;;;;;4.30;2.50;;;;;;;14.86;78.07;98119.30;109824;1244;67733;-60
2023/10/02 06:34:57;;;;;;;5.00;2.80;;;;;;;15.04;78.32;98120.33;109816;1244;59766;-61
2023/10/02 06:37:35;;;;;;;4.70;2.60;;;;;;;15.43;76.75;98118.73;109838;1244;59657;-59
2023/10/02 06:40:16;;;;;;;5.30;2.80;;;;;;;15.88;73.84;98123.36;109827;1243;70702;-60
2023/10/02 06:42:49;;;;;;;4.20;2.60;;;;;;;16.28;70.85;98125.13;109885;1243;69446;-61
2023/10/02 06:45:25;;;;;;;5.60;2.80;;;;;;;16.76;69.18;98124.98;109887;1246;69223;-60
2023/10/02 06:47:56;;;;;;;5.90;2.60;;;;;;;17.24;67.21;98126.30;109789;1244;59698;-61
2023/10/02 06:50:34;;;;;;;3.90;2.20;;;;;;;17.37;66.43;98125.48;109875;1244;59642;-60
2023/10/02 06:53:06;;;;;;;5.80;2.90;;;;;;;17.40;64.47;98128.05;109768;1243;71973;-60
2023/10/02 06:55:37;;;;;;;6.60;3.00;;;;;;;17.42;65.29;98134.73;109836;1245;69198;-59
2023/10/02 06:58:07;;;;;;;4.10;2.60;;;;;;;17.68;66.57;98135.42;109932;1244;69494;-60
2023/10/02 07:00:54;;;;;;;5.80;3.10;;;;;;;17.75;63.54;98140.89;109859;1243;59736;-60
2023/10/02 07:03:25;;;;;;;4.50;2.60;;;;;;;18.06;62.72;98140.25;109788;1245;59722;-60
2023/10/02 07:05:57;;;;;;;5.20;2.60;;;;;;;17.71;61.34;98138.47;109807;1244;71634;-60
2023/10/02 07:08:30;;;;;;;4.40;2.80;;;;;;;18.05;62.81;98144.02;109831;1243;68598;-60
2023/10/02 07:11:01;;;;;;;5.00;2.40;;;;;;;18.08;62.27;98143.00;109776;1243;68523;-61
2023/10/02 07:13:31;;;;;;;4.90;2.50;;;;;;;18.26;60.18;98145.95;109817;1246;59986;-62
2023/10/02 07:16:06;;;;;;;9.50;4.30;;;;;;;18.37;59.77;98147.60;109803;1243;59692;-60
2023/10/02 07:18:45;;;;;;;8.70;4.60;;;;;;;18.81;59.48;98146.32;109782;1243;70795;-60
2023/10/02 07:21:21;;;;;;;9.70;4.40;;;;;;;18.65;57.93;98152.90;109770;1243;68202;-60
2023/10/02 07:23:51;;;;;;;8.90;3.90;;;;;;;18.18;59.60;98150.97;109752;1243;69507;-60
2023/10/02 07:26:45;;;;;;;8.70;3.90;;;;;;;17.78;60.71;98154.92;109774;1243;59605;-60
2023/10/02 07:29:10;;;;;;;7.70;4.10;;;;;;;17.52;60.90;98155.39;109853;1243;59691;-62
2023/10/02 07:31:44;;;;;;;7.20;4.30;;;;;;;17.40;62.09;98160.31;109767;1243;71227;-61
2023/10/02 07:34:15;;;;;;;10.20;4.40;;;;;;;17.52;61.33;98159.42;109901;1244;69088;-61
2023/10/02 07:36:45;;;;;;;5.90;3.50;;;;;;;17.67;61.54;98161.95;109771;1245;67591;-61
2023/10/02 07:42:10;;;;;;;6.20;3.40;;;;;;;18.11;59.89;98175.04;109997;1244;59681;-60
2023/10/02 07:44:41;;;;;;;6.90;3.70;;;;;;;18.01;60.06;98178.48;109805;1244;71443;-61
2023/10/02 07:47:16;;;;;;;7.50;3.30;;;;;;;18.50;59.78;98175.71;109781;1245;70070;-60
2023/10/02 07:49:58;;;;;;;5.80;3.10;;;;;;;19.40;58.37;98174.90;109765;1245;69787;-62
2023/10/02 07:52:35;;;;;;;7.20;3.30;;;;;;;20.21;54.26;98174.43;109883;1243;59755;-63
2023/10/02 07:55:10;;;;;;;7.20;3.90;;;;;;;20.54;54.42;98174.84;109835;1246;59687;-63
2023/10/02 07:57:41;;;;;;;6.50;3.20;;;;;;;19.61;53.28;98179.14;109908;1245;71658;-61
2023/10/02 08:03:02;;;;;;;;;;;;;;;18.49;57.08;98181.58;109906;1244;69869;-60
2023/10/02 08:05:35;;;;;;;6.60;3.70;;;;;;;17.98;58.47;98174.58;109907;1245;59766;-61
2023/10/02 08:08:11;;;;;;;8.20;4.00;;;;;;;17.94;59.68;98177.27;109730;1246;59719;-60
2023/10/02 08:10:53;;;;;;;7.90;4.10;;;;;;;18.34;58.13;98177.18;109720;1246;71470;-60
2023/10/02 08:13:35;;;;;;;7.60;4.30;;;;;;;18.20;58.26;98183.71;109842;1245;69238;-61
2023/10/02 08:16:15;;;;;;;6.10;3.30;;;;;;;18.25;58.52;98180.29;109735;1247;68685;-61
2023/10/02 08:18:58;;;;;;;8.50;3.60;;;;;;;18.46;58.12;98185.08;109784;1246;59749;-63
2023/10/02 08:24:28;;;;;;;5.20;3.00;;;;;;;18.16;57.89;98184.80;109735;1244;71373;-60
2023/10/02 08:26:58;;;;;;;9.20;3.90;;;;;;;18.23;58.25;98185.21;109806;1244;68549;-60
2023/10/02 08:29:28;;;;;;;8.10;4.00;;;;;;;18.59;57.49;98185.11;109735;1245;69890;-60
2023/10/02 08:31:57;;;;;;;6.00;3.50;;;;;;;18.70;56.73;98187.61;109739;1245;59752;-60
2023/10/02 08:34:27;;;;;;;7.60;4.30;;;;;;;18.76;57.19;98186.89;109740;1246;59667;-60
2023/10/02 08:37:09;;;;;;;5.80;3.40;;;;;;;19.06;56.60;98184.73;109728;1245;71472;-60
2023/10/02 08:39:39;;;;;;;8.50;3.30;;;;;;;19.53;55.72;98184.92;109766;1246;69219;-62
2023/10/02 08:42:09;;;;;;;6.60;3.50;;;;;;;19.99;54.19;98181.70;109795;1247;69870;-60
2023/10/02 08:44:41;;;;;;;8.70;3.80;;;;;;;20.30;52.81;98179.98;109733;1247;59725;-59
2023/10/02 08:47:24;;;;;;;6.90;3.60;;;;;;;20.17;52.63;98179.73;109726;1246;60056;-59
2023/10/02 08:50:03;;;;;;;7.20;4.20;;;;;;;20.12;52.61;98182.00;109751;1246;71363;-62
2023/10/02 08:52:42;;;;;;;8.40;4.20;;;;;;;19.92;52.80;98182.05;109937;1243;68523;-63
2023/10/02 08:55:36;;;;;;;8.10;4.50;;;;;;;19.88;52.29;98183.58;109890;1243;69286;-62
2023/10/02 08:58:27;;;;;;;8.00;4.00;;;;;;;19.58;53.31;98187.30;109935;1244;59732;-62
2023/10/02 09:03:49;;;;;;;9.40;3.80;;;;;;;20.15;52.26;98184.88;109927;1245;71399;-61
2023/10/02 09:06:35;;;;;;;8.40;3.60;;;;;;;20.42;51.79;98182.69;109959;1244;69265;-62
2023/10/02 09:11:57;;;;;;;4.40;2.80;;;;;;;20.99;49.88;98176.90;109945;1244;60053;-61
2023/10/02 09:17:16;;;;;;;6.30;3.90;;;;;;;21.04;49.24;98178.13;110016;1246;72101;-60
2023/10/02 09:19:53;;;;;;;7.00;3.60;;;;;;;20.85;49.79;98175.90;110005;1245;69828;-60
2023/10/02 09:22:27;;;;;;;6.00;3.90;;;;;;;20.75;50.55;98174.38;109979;1246;68542;-61
2023/10/02 09:25:37;;;;;;;7.30;3.90;;;;;;;21.79;49.63;98176.31;109947;1244;59744;-60
2023/10/02 09:28:04;;;;;;;8.10;4.30;;;;;;;22.85;47.32;98185.20;110052;1246;59612;-61
2023/10/02 09:30:36;;;;;;;10.00;5.20;;;;;;;23.46;45.31;98184.25;109836;1247;71269;-61
2023/10/02 09:33:22;;;;;;;7.80;4.00;;;;;;;23.94;43.64;98180.36;109862;1245;69771;-60
2023/10/02 09:36:15;;;;;;;8.20;4.40;;;;;;;24.30;42.62;98185.69;109769;1243;70595;-61
2023/10/02 09:39:31;;;;;;;6.50;4.10;;;;;;;24.34;41.96;98189.71;109923;1246;59766;-62
2023/10/02 09:42:06;;;;;;;7.30;4.00;;;;;;;24.24;42.03;98195.36;109839;1247;59672;-61
2023/10/02 09:44:42;;;;;;;5.50;3.90;;;;;;;24.95;41.07;98193.62;109868;1243;71870;-61
2023/10/02 09:47:20;;;;;;;6.30;3.30;;;;;;;24.31;40.88;98190.25;109815;1243;70064;-61
2023/10/02 09:50:11;;;;;;;6.80;4.20;;;;;;;24.62;41.71;98187.33;109825;1243;69855;-61
2023/10/02 09:53:09;;;;;;;10.60;3.90;;;;;;;24.55;40.17;98188.06;110089;1245;59687;-61
2023/10/02 09:55:41;;;;;;;6.00;3.20;;;;;;;23.30;42.50;98183.71;110053;1245;60178;-62
2023/10/02 09:58:28;;;;;;;5.60;3.50;;;;;;;23.18;42.61;98187.03;110069;1243;71804;-60
2023/10/02 10:01:21;;;;;;;9.10;4.30;;;;;;;23.57;42.03;98188.46;110054;1244;69061;-60
2023/10/02 10:03:51;;;;;;;5.70;3.40;;;;;;;23.76;41.74;98183.45;110057;1245;69892;-60
2023/10/02 10:06:28;;;;;;;6.60;3.30;;;;;;;24.36;41.60;98185.21;110032;1245;59773;-60
2023/10/02 10:11:45;;;;;;;6.60;3.60;;;;;;;24.92;39.30;98178.81;110075;1244;71948;-61
2023/10/02 10:14:44;;;;;;;6.00;3.70;;;;;;;25.70;38.27;98172.80;110050;1245;69844;-61
2023/10/02 10:17:17;;;;;;;5.80;2.90;;;;;;;25.39;38.51;98169.91;110093;1245;69717;-61
2023/10/02 10:20:42;;;;;;;5.90;3.40;;;;;;;25.01;38.80;98169.40;110089;1245;59721;-61
2023/10/02 10:22:50;;;;;;;6.00;3.50;;;;;;;25.72;37.22;98167.21;109959;1245;59744;-60
2023/10/02 10:27:54;;;;;;;10.00;4.10;;;;;;;27.49;36.28;98162.70;110087;1244;69820;-60
2023/10/02 10:30:24;;;;;;;6.30;3.50;;;;;;;28.09;34.06;98156.48;110051;1245;69270;-60
2023/10/02 10:33:27;;;;;;;5.30;3.50;;;;;;;26.60;35.48;98157.73;110075;1243;59723;-61
2023/10/02 10:35:55;;;;;;;4.60;3.30;;;;;;;26.43;36.13;98156.92;110092;1245;59641;-61
2023/10/02 10:38:37;;;;;;;6.30;4.00;;;;;;;26.16;36.61;98153.53;110097;1245;71991;-61
2023/10/02 10:41:14;;;;;;;5.50;3.10;;;;;;;26.72;35.38;98155.95;110098;1245;69159;-61
2023/10/02 10:43:44;;;;;;;6.60;3.80;;;;;;;25.66;36.68;98152.16;110094;1246;69351;-60
2023/10/02 10:46:16;;;;;;;6.50;3.60;;;;;;;24.41;38.52;98144.70;110113;1245;59728;-60
2023/10/02 10:48:54;;;;;;;3.70;2.70;;;;;;;25.33;37.67;98140.13;110012;1244;59715;-61
2023/10/02 10:51:33;;;;;;;4.70;2.70;;;;;;;26.85;35.69;98133.84;110064;1245;71365;-61
2023/10/02 10:54:19;;;;;;;4.30;2.70;;;;;;;27.67;34.02;98130.21;109842;1243;69199;-60
2023/10/02 10:57:27;;;;;;;4.70;2.60;;;;;;;28.54;31.62;98125.21;109740;1246;70286;-60
2023/10/02 11:03:08;;;;;;;3.60;2.60;;;;;;;28.19;31.53;98122.69;109835;1245;59692;-60
2023/10/02 11:05:38;;;;;;;5.50;3.10;;;;;;;28.76;30.83;98119.21;109798;1247;72136;-60
2023/10/02 11:08:24;;;;;;;5.50;3.10;;;;;;;27.57;31.52;98123.29;109999;1245;69279;-61
2023/10/02 11:11:01;;;;;;;5.00;2.90;;;;;;;28.00;30.95;98117.69;109746;1245;69879;-61
2023/10/02 11:13:50;;;;;;;4.70;2.90;;;;;;;27.34;32.35;98118.75;109813;1245;60145;-61
2023/10/02 11:16:31;;;;;;;5.50;2.90;;;;;;;27.18;32.85;98120.09;109879;1246;59705;-60
2023/10/02 11:19:57;;;;;;;5.50;3.20;;;;;;;28.49;31.42;98120.97;109864;1244;71967;-60
2023/10/02 11:22:16;;;;;;;7.20;3.50;;;;;;;28.71;31.38;98119.05;109885;1246;67913;-60
2023/10/02 11:24:55;;;;;;;7.00;3.40;;;;;;;26.98;32.41;98114.30;109850;1245;69862;-61
2023/10/02 11:27:25;;;;;;;4.40;2.70;;;;;;;25.98;34.50;98113.63;109870;1243;59732;-60
2023/10/02 11:30:05;;;;;;;5.10;2.60;;;;;;;26.46;34.01;98117.59;109850;1244;59706;-61
2023/10/02 11:32:58;;;;;;;5.40;2.40;;;;;;;26.75;33.41;98118.95;109958;1243;71790;-61
2023/10/02 11:35:28;;;;;;;5.60;3.00;;;;;;;26.55;32.78;98111.64;109821;1245;69240;-61
2023/10/02 11:37:58;;;;;;;4.40;2.70;;;;;;;27.28;32.53;98106.29;109847;1243;69276;-60
2023/10/02 11:40:28;;;;;;;6.40;3.30;;;;;;;27.27;31.65;98107.36;109909;1242;59754;-61
2023/10/02 11:42:59;;;;;;;5.80;3.40;;;;;;;28.33;30.94;98104.15;109905;1246;59651;-61
2023/10/02 11:45:32;;;;;;;6.20;3.60;;;;;;;28.70;30.53;98106.26;109884;1243;72023;-61
2023/10/02 11:48:03;;;;;;;5.80;3.20;;;;;;;28.17;30.79;98101.66;109866;1245;69226;-61
2023/10/02 11:50:32;;;;;;;4.90;3.20;;;;;;;29.08;30.86;98100.00;109829;1243;69863;-62
2023/10/02 11:53:01;;;;;;;4.20;2.80;;;;;;;28.35;31.10;98100.64;109855;1243;59703;-61
2023/10/02 11:55:33;;;;;;;4.60;3.10;;;;;;;27.31;32.32;98099.67;109895;1245;59711;-61
2023/10/02 11:58:04;;;;;;;4.70;2.70;;;;;;;26.26;33.91;98102.59;109919;1245;71334;-61
2023/10/02 12:00:37;;;;;;;4.00;2.80;;;;;;;25.18;35.10;98105.18;109977;1246;69802;-61
2023/10/02 12:03:07;;;;;;;4.50;3.00;;;;;;;25.44;35.16;98107.11;109854;1248;69981;-61
2023/10/02 12:05:38;;;;;;;5.30;3.40;;;;;;;25.09;36.06;98111.29;109966;1243;60057;-61
2023/10/02 12:08:07;;;;;;;;;;;;;;;24.31;37.06;98114.85;109895;1243;59758;-61
2023/10/02 12:10:39;;;;;;;;;;;;;;;24.80;36.33;98109.33;109875;1243;71947;-60
2023/10/02 12:13:08;;;;;;;5.20;2.80;;;;;;;26.06;35.06;98105.22;109855;1247;69238;-61
2023/10/02 12:15:38;;;;;;;3.80;2.70;;;;;;;26.51;33.01;98102.69;109903;1246;68510;-62
2023/10/02 12:18:07;;;;;;;4.90;2.80;;;;;;;26.73;32.33;98095.75;109945;1243;59771;-60
2023/10/02 12:20:42;;;;;;;6.20;2.90;;;;;;;27.64;31.97;98086.75;109940;1246;59752;-62
2023/10/02 12:23:14;;;;;;;5.50;3.40;;;;;;;28.22;31.14;98090.08;109901;1245;71421;-61
2023/10/02 12:25:48;;;;;;;3.90;2.30;;;;;;;28.42;30.42;98084.83;110030;1245;69096;-60
2023/10/02 12:28:18;;;;;;;4.20;2.40;;;;;;;28.73;30.44;98080.55;109815;1244;69247;-61
2023/10/02 12:30:48;;;;;;;4.60;2.40;;;;;;;29.05;30.06;98079.33;109904;1243;59683;-60
2023/10/02 12:33:17;;;;;;;4.10;2.70;;;;;;;29.94;28.89;98077.91;109788;1243;59765;-59
2023/10/02 12:35:46;;;;;;;4.60;2.50;;;;;;;30.34;28.25;98074.36;109853;1246;71136;-60
2023/10/02 12:38:16;;;;;;;2.80;2.10;;;;;;;30.21;27.18;98073.40;110064;1244;69835;-62
2023/10/02 12:40:46;;;;;;;4.20;2.70;;;;;;;30.60;26.79;98066.50;110105;1242;69285;-61
2023/10/02 12:43:17;;;;;;;3.70;2.50;;;;;;;30.67;26.76;98060.58;109793;1245;59816;-60
2023/10/02 12:45:46;;;;;;;3.90;3.10;;;;;;;29.64;26.95;98056.45;109801;1244;59715;-60
2023/10/02 12:48:17;;;;;;;3.30;2.10;;;;;;;29.43;27.63;98057.16;110030;1242;71971;-60